createdAt,value
2023-05-07T00:03:36.724Z,9.20
2023-05-07T00:07:26.250Z,9.20
2023-05-07T00:11:14.527Z,9.50
2023-05-07T00:15:02.102Z,8.80
2023-05-07T00:18:51.580Z,11.20
2023-05-07T00:22:45.002Z,12.00
2023-05-07T00:26:32.418Z,9.30
2023-05-07T00:34:46.894Z,11.20
2023-05-07T00:39:14.306Z,6.70
2023-05-07T00:43:42.594Z,10.50
2023-05-07T00:48:10.132Z,9.80
2023-05-07T00:52:37.644Z,8.20
2023-05-07T00:57:05.070Z,9.50
2023-05-07T01:01:32.681Z,10.00
2023-05-07T01:06:06.305Z,10.00
2023-05-07T01:10:35.550Z,9.60
2023-05-07T01:15:03.956Z,12.50
2023-05-07T01:19:34.708Z,10.00
2023-05-07T01:24:02.322Z,9.80
2023-05-07T01:28:29.954Z,10.90
2023-05-07T01:33:00.240Z,8.40
2023-05-07T01:37:28.210Z,8.00
2023-05-07T01:41:55.721Z,9.70
2023-05-07T01:46:23.332Z,9.10
2023-05-07T01:50:51.905Z,15.60
2023-05-07T01:55:19.464Z,10.40
2023-05-07T01:59:48.574Z,6.00
2023-05-07T02:04:16.288Z,9.90
2023-05-07T02:08:43.708Z,11.50
2023-05-07T02:13:11.385Z,7.00
2023-05-07T02:17:38.966Z,8.50
2023-05-07T02:22:06.679Z,8.10
2023-05-07T02:26:34.229Z,6.40
2023-05-07T02:31:01.728Z,6.50
2023-05-07T02:35:29.803Z,10.40
2023-05-07T02:39:57.263Z,7.70
2023-05-07T02:44:24.956Z,10.70
2023-05-07T02:48:52.259Z,8.30
2023-05-07T02:53:19.454Z,7.50
2023-05-07T02:57:48.346Z,9.00
2023-05-07T03:01:56.289Z,6.90
2023-05-07T03:06:05.967Z,5.60
2023-05-07T03:09:53.521Z,8.60
2023-05-07T03:13:41.289Z,7.40
2023-05-07T03:17:20.998Z,7.60
2023-05-07T03:20:51.686Z,10.60
2023-05-07T03:24:31.432Z,7.20
2023-05-07T03:28:19.476Z,10.00
2023-05-07T03:32:06.737Z,7.20
2023-05-07T03:35:56.111Z,9.10
2023-05-07T03:39:26.084Z,10.20
2023-05-07T03:43:17.197Z,9.40
2023-05-07T03:47:08.652Z,8.70
2023-05-07T03:50:56.527Z,11.10
2023-05-07T03:54:28.168Z,9.00
2023-05-07T03:58:17.643Z,11.20
2023-05-07T04:02:05.838Z,10.90
2023-05-07T04:05:53.654Z,12.30
2023-05-07T04:09:41.606Z,17.20
2023-05-07T04:13:28.883Z,15.90
2023-05-07T04:17:16.739Z,14.20
2023-05-07T04:21:03.757Z,12.60
2023-05-07T04:24:52.300Z,11.90
2023-05-07T04:28:41.353Z,11.60
2023-05-07T04:32:30.102Z,12.70
2023-05-07T04:35:40.190Z,14.20
2023-05-07T04:39:29.041Z,12.40
2023-05-07T04:43:17.211Z,13.70
2023-05-07T04:46:56.475Z,11.50
2023-05-07T04:50:45.766Z,12.00
2023-05-07T04:54:32.977Z,9.30
2023-05-07T04:58:21.124Z,13.10
2023-05-07T05:02:12.267Z,10.40
2023-05-07T05:05:59.941Z,9.80
2023-05-07T05:09:48.302Z,10.80
2023-05-07T05:13:37.973Z,7.40
2023-05-07T05:17:27.970Z,10.20
2023-05-07T05:21:15.486Z,5.60
2023-05-07T05:25:03.790Z,8.80
2023-05-07T05:28:43.170Z,7.30
2023-05-07T05:32:24.971Z,6.40
2023-05-07T05:36:12.989Z,11.70
2023-05-07T05:39:50.833Z,10.50
2023-05-07T05:43:58.409Z,6.20
2023-05-07T05:47:46.316Z,8.30
2023-05-07T05:51:33.673Z,8.30
2023-05-07T05:55:22.099Z,6.80
2023-05-07T05:59:09.615Z,6.40
2023-05-07T06:02:57.600Z,10.30
2023-05-07T06:06:38.662Z,5.20
2023-05-07T06:10:26.454Z,7.00
2023-05-07T06:14:14.200Z,4.00
2023-05-07T06:18:03.148Z,4.00
2023-05-07T06:22:06.975Z,6.60
2023-05-07T06:26:20.445Z,4.70
2023-05-07T06:30:08.795Z,4.60
2023-05-07T06:33:55.156Z,6.70
2023-05-07T06:37:50.880Z,3.80
2023-05-07T06:41:38.926Z,2.90
2023-05-07T06:45:33.034Z,4.20
2023-05-07T06:49:20.980Z,4.40
2023-05-07T06:53:01.275Z,4.60
2023-05-07T06:57:10.346Z,6.10
2023-05-07T07:00:36.419Z,3.40
2023-05-07T07:04:24.467Z,6.60
2023-05-07T07:07:59.616Z,8.50
2023-05-07T07:11:49.137Z,4.20
2023-05-07T07:15:37.313Z,3.40
2023-05-07T07:19:47.041Z,2.90
2023-05-07T07:23:57.342Z,3.80
2023-05-07T07:27:47.002Z,4.00
2023-05-07T07:31:35.299Z,4.30
2023-05-07T07:35:45.537Z,5.30
2023-05-07T07:39:34.633Z,4.10
2023-05-07T07:43:23.000Z,6.00
2023-05-07T07:47:48.110Z,4.80
2023-05-07T07:51:36.901Z,5.00
2023-05-07T07:55:29.253Z,3.50
2023-05-07T07:59:33.745Z,3.80
2023-05-07T08:03:41.906Z,5.70
2023-05-07T08:08:17.100Z,4.80
2023-05-07T08:11:44.030Z,4.20
2023-05-07T08:16:09.004Z,4.80
2023-05-07T08:25:02.462Z,3.10
2023-05-07T08:28:55.255Z,7.30
2023-05-07T08:32:46.522Z,4.50
2023-05-07T08:37:14.250Z,4.20
2023-05-07T08:41:42.751Z,4.50
2023-05-07T08:45:51.462Z,4.80
2023-05-07T08:49:47.029Z,4.30
2023-05-07T08:53:38.806Z,2.60
2023-05-07T08:57:26.544Z,2.60
2023-05-07T09:01:16.263Z,2.90
2023-05-07T09:05:07.866Z,1.70
2023-05-07T09:09:40.500Z,4.20
2023-05-07T09:14:10.149Z,3.00
2023-05-07T09:17:56.782Z,2.20
2023-05-07T09:21:46.695Z,2.30
2023-05-07T09:25:34.856Z,3.20
2023-05-07T09:29:25.136Z,2.10
2023-05-07T09:33:20.990Z,3.10
2023-05-07T09:37:13.332Z,1.70
2023-05-07T09:41:21.275Z,5.40
2023-05-07T09:45:21.263Z,1.70
2023-05-07T09:49:11.093Z,2.70
2023-05-07T09:53:00.969Z,7.00
2023-05-07T09:56:53.079Z,2.70
2023-05-07T10:01:21.437Z,5.20
2023-05-07T10:05:50.399Z,4.40
2023-05-07T10:09:59.489Z,4.10
2023-05-07T10:13:53.740Z,7.00
2023-05-07T10:18:19.490Z,3.80
2023-05-07T10:22:36.649Z,4.10
2023-05-07T10:26:35.580Z,3.20
2023-05-07T10:30:38.373Z,3.60
2023-05-07T10:34:49.383Z,4.50
2023-05-07T10:39:18.365Z,2.90
2023-05-07T10:43:11.950Z,3.60
2023-05-07T10:47:47.820Z,3.10
2023-05-07T10:52:17.876Z,3.50
2023-05-07T10:56:19.445Z,2.50
2023-05-07T11:00:31.755Z,3.60
2023-05-07T11:04:27.161Z,2.70
2023-05-07T11:08:19.165Z,5.30
2023-05-07T11:12:29.155Z,3.10
2023-05-07T11:16:45.455Z,3.90
2023-05-07T11:21:02.763Z,4.70
2023-05-07T11:25:15.744Z,4.40
2023-05-07T11:29:25.936Z,4.00
2023-05-07T11:33:35.167Z,2.70
2023-05-07T11:37:25.631Z,4.80
2023-05-07T11:41:52.829Z,2.70
2023-05-07T11:45:44.792Z,4.70
2023-05-07T11:49:33.488Z,4.70
2023-05-07T11:53:42.005Z,3.70
2023-05-07T11:57:49.485Z,2.30
2023-05-07T12:01:49.969Z,2.80
2023-05-07T12:05:40.130Z,3.10
2023-05-07T12:10:08.779Z,2.20
2023-05-07T12:14:19.321Z,3.70
2023-05-07T12:18:47.355Z,2.90
2023-05-07T12:22:57.322Z,3.20
2023-05-07T12:27:08.850Z,3.20
2023-05-07T12:30:57.691Z,4.70
2023-05-07T12:35:30.214Z,3.50
2023-05-07T12:39:58.508Z,4.70
2023-05-07T12:44:26.677Z,2.70
2023-05-07T12:48:54.641Z,5.70
2023-05-07T12:52:47.946Z,2.30
2023-05-07T12:56:44.289Z,2.10
2023-05-07T13:00:52.183Z,3.80
2023-05-07T13:05:01.673Z,5.00
2023-05-07T13:09:32.955Z,4.40
2023-05-07T13:14:00.532Z,4.80
2023-05-07T13:18:28.379Z,3.40
2023-05-07T13:22:17.388Z,6.80
2023-05-07T13:26:14.623Z,2.80
2023-05-07T13:30:21.492Z,3.10
2023-05-07T13:34:10.948Z,3.00
2023-05-07T13:38:20.389Z,2.40
2023-05-07T13:42:09.446Z,3.20
2023-05-07T13:46:17.637Z,5.10
2023-05-07T13:50:46.998Z,3.90
2023-05-07T13:54:58.119Z,8.30
2023-05-07T13:59:53.692Z,6.40
2023-05-07T14:03:37.140Z,4.50
2023-05-07T14:08:05.079Z,4.80
2023-05-07T14:11:52.910Z,3.40
2023-05-07T14:15:36.149Z,2.60
2023-05-07T14:19:33.125Z,5.70
2023-05-07T14:23:41.128Z,4.40
2023-05-07T14:27:45.499Z,7.20
2023-05-07T14:31:56.652Z,2.90
2023-05-07T14:36:27.148Z,3.70
2023-05-07T14:40:17.284Z,5.20
2023-05-07T14:44:09.866Z,3.20
2023-05-07T14:48:21.135Z,4.40
2023-05-07T14:52:10.240Z,3.30
2023-05-07T14:56:08.451Z,3.20
2023-05-07T14:59:57.290Z,3.00
2023-05-07T15:03:46.469Z,3.60
2023-05-07T15:07:36.370Z,4.20
2023-05-07T15:11:45.288Z,2.10
2023-05-07T15:15:54.953Z,2.90
2023-05-07T15:19:47.316Z,6.10
2023-05-07T15:23:38.410Z,4.70
2023-05-07T15:27:46.764Z,8.30
2023-05-07T15:31:20.178Z,5.90
2023-05-07T15:35:28.035Z,6.00
2023-05-07T15:39:19.453Z,5.00
2023-05-07T15:43:11.385Z,5.00
2023-05-07T15:47:22.512Z,8.50
2023-05-07T15:51:11.725Z,7.30
2023-05-07T15:55:39.681Z,8.60
2023-05-07T15:59:27.658Z,5.80
2023-05-07T16:03:19.048Z,6.20
2023-05-07T16:07:08.833Z,6.90
2023-05-07T16:11:19.286Z,7.20
2023-05-07T16:15:07.780Z,6.30
2023-05-07T16:18:59.500Z,5.00
2023-05-07T16:22:55.539Z,6.80
2023-05-07T16:27:00.005Z,13.30
2023-05-07T16:30:45.573Z,6.30
2023-05-07T16:34:36.918Z,5.40
2023-05-07T16:38:45.280Z,4.60
2023-05-07T16:42:34.814Z,5.90
2023-05-07T16:46:38.377Z,12.30
2023-05-07T16:50:50.530Z,13.00
2023-05-07T16:54:39.150Z,6.40
2023-05-07T16:58:27.041Z,5.90
2023-05-07T17:02:16.147Z,8.50
2023-05-07T17:06:04.815Z,4.40
2023-05-07T17:09:57.690Z,4.30
2023-05-07T17:13:46.410Z,9.20
2023-05-07T17:17:34.357Z,4.00
2023-05-07T17:21:22.524Z,5.70
2023-05-07T17:25:11.972Z,6.10
2023-05-07T17:29:00.842Z,6.60
2023-05-07T17:32:49.685Z,5.90
2023-05-07T17:36:41.686Z,8.10
2023-05-07T17:40:30.526Z,5.20
2023-05-07T17:44:20.339Z,4.80
2023-05-07T17:48:06.563Z,6.50
2023-05-07T17:52:04.531Z,5.40
2023-05-07T17:55:53.656Z,5.40
2023-05-07T17:59:44.814Z,5.10
2023-05-07T18:03:35.326Z,5.50
2023-05-07T18:07:28.100Z,6.70
2023-05-07T18:11:19.072Z,9.60
2023-05-07T18:15:09.348Z,7.50
2023-05-07T18:18:58.939Z,7.90
2023-05-07T18:22:41.375Z,8.20
2023-05-07T18:26:30.067Z,13.30
2023-05-07T18:30:22.509Z,9.30
2023-05-07T18:34:16.039Z,11.00
2023-05-07T18:38:06.770Z,7.50
2023-05-07T18:41:55.444Z,5.70
2023-05-07T18:45:40.962Z,6.60
2023-05-07T18:49:30.635Z,8.10
2023-05-07T18:53:20.200Z,10.30
2023-05-07T18:57:08.707Z,13.00
2023-05-07T19:00:57.291Z,13.40
2023-05-07T19:04:40.085Z,12.00
2023-05-07T19:08:29.883Z,11.90
2023-05-07T19:12:35.809Z,16.70
2023-05-07T19:16:12.426Z,15.90
2023-05-07T19:19:45.033Z,13.60
2023-05-07T19:23:35.578Z,8.10
2023-05-07T19:27:24.216Z,8.80
2023-05-07T19:31:13.393Z,7.40
2023-05-07T19:35:02.875Z,11.80
2023-05-07T19:38:43.697Z,12.90
2023-05-07T19:42:14.963Z,13.40
2023-05-07T19:46:04.689Z,13.40
2023-05-07T19:49:54.500Z,16.70
2023-05-07T19:53:43.687Z,12.40
2023-05-07T19:57:15.111Z,16.50
2023-05-07T20:00:40.508Z,17.80
2023-05-07T20:04:31.033Z,17.80
2023-05-07T20:08:28.783Z,27.30
2023-05-07T20:12:25.918Z,24.80
2023-05-07T20:16:25.616Z,27.10
2023-05-07T20:20:13.985Z,27.40
2023-05-07T20:24:26.801Z,27.40
2023-05-07T20:28:22.907Z,32.20
2023-05-07T20:32:12.287Z,44.70
2023-05-07T20:35:46.728Z,47.90
2023-05-07T20:39:35.951Z,49.40
2023-05-07T20:43:18.856Z,56.40
2023-05-07T20:46:48.425Z,46.90
2023-05-07T20:50:35.076Z,49.90
2023-05-07T20:54:24.136Z,62.00
2023-05-07T20:58:12.340Z,64.50
2023-05-07T21:02:01.390Z,58.20
2023-05-07T21:05:55.727Z,54.70
2023-05-07T21:09:25.139Z,43.40
2023-05-07T21:13:14.212Z,36.90
2023-05-07T21:16:57.443Z,37.60
2023-05-07T21:20:28.681Z,35.20
2023-05-07T21:24:16.595Z,30.40
2023-05-07T21:27:50.336Z,26.20
2023-05-07T21:31:38.045Z,26.80
2023-05-07T21:35:25.744Z,18.90
2023-05-07T21:39:13.542Z,18.90
2023-05-07T21:43:02.650Z,16.60
2023-05-07T21:46:50.335Z,16.70
2023-05-07T21:50:38.408Z,17.70
2023-05-07T21:54:26.925Z,17.40
2023-05-07T21:58:05.992Z,20.00
2023-05-07T22:01:48.526Z,21.60
2023-05-07T22:05:36.301Z,29.70
2023-05-07T22:09:32.639Z,25.50
2023-05-07T22:13:20.625Z,19.80
2023-05-07T22:17:09.113Z,16.60
2023-05-07T22:20:44.452Z,18.00
2023-05-07T22:24:32.671Z,20.60
2023-05-07T22:28:20.598Z,24.90
2023-05-07T22:31:58.537Z,19.10
2023-05-07T22:35:32.162Z,18.70
2023-05-07T22:39:18.852Z,22.20
2023-05-07T22:43:06.743Z,18.00
2023-05-07T22:47:02.996Z,14.90
2023-05-07T22:50:37.667Z,19.10
2023-05-07T22:54:25.684Z,26.60
2023-05-07T22:57:55.753Z,27.00
2023-05-07T23:01:44.460Z,26.80
2023-05-07T23:05:31.961Z,23.50
2023-05-07T23:09:20.033Z,23.10
2023-05-07T23:13:07.536Z,21.50
2023-05-07T23:16:48.128Z,27.40
2023-05-07T23:20:17.776Z,40.40
2023-05-07T23:23:56.686Z,40.80
2023-05-07T23:27:34.162Z,37.10
2023-05-07T23:31:01.980Z,36.70
2023-05-07T23:34:41.352Z,40.10
2023-05-07T23:38:28.890Z,47.60
2023-05-07T23:41:59.757Z,48.60
2023-05-07T23:45:37.137Z,44.30
2023-05-07T23:49:24.623Z,45.80
2023-05-07T23:53:12.250Z,50.20
2023-05-07T23:56:59.658Z,50.50
